sensor_id;sensor_type;location;lat;lon;timestamp;temperature;humidity
78896;HTU21D;68284;59.124;37.910;2024-01-15T00:00:07;-11.85;72.77
78896;HTU21D;68284;59.124;37.910;2024-01-15T00:02:52;-11.88;72.72
78896;HTU21D;68284;59.124;37.910;2024-01-15T00:05:18;-11.84;72.77
78896;HTU21D;68284;59.124;37.910;2024-01-15T00:07:45;-11.84;72.79
78896;HTU21D;68284;59.124;37.910;2024-01-15T00:10:11;-11.83;72.76
78896;HTU21D;68284;59.124;37.910;2024-01-15T00:12:37;-11.85;72.75
78896;HTU21D;68284;59.124;37.910;2024-01-15T00:15:22;-11.88;72.73
78896;HTU21D;68284;59.124;37.910;2024-01-15T00:20:52;-11.89;72.79
78896;HTU21D;68284;59.124;37.910;2024-01-15T00:23:55;-11.89;72.78
78896;HTU21D;68284;59.124;37.910;2024-01-15T00:26:21;-11.89;72.76
78896;HTU21D;68284;59.124;37.910;2024-01-15T00:28:48;-11.89;72.80
78896;HTU21D;68284;59.124;37.910;2024-01-15T00:31:16;-11.89;72.80
78896;HTU21D;68284;59.124;37.910;2024-01-15T00:33:43;-11.90;72.80
78896;HTU21D;68284;59.124;37.910;2024-01-15T00:36:09;-11.91;72.80
78896;HTU21D;68284;59.124;37.910;2024-01-15T00:38:36;-11.91;72.90
78896;HTU21D;68284;59.124;37.910;2024-01-15T00:41:02;-11.88;72.90
78896;HTU21D;68284;59.124;37.910;2024-01-15T00:46:17;-11.82;72.87
78896;HTU21D;68284;59.124;37.910;2024-01-15T00:48:43;-11.82;72.84
78896;HTU21D;68284;59.124;37.910;2024-01-15T00:51:09;-11.80;72.87
78896;HTU21D;68284;59.124;37.910;2024-01-15T00:53:36;-11.78;72.87
78896;HTU21D;68284;59.124;37.910;2024-01-15T00:56:21;-11.77;72.83
78896;HTU21D;68284;59.124;37.910;2024-01-15T00:58:47;-11.77;72.88
78896;HTU21D;68284;59.124;37.910;2024-01-15T01:01:13;-11.76;72.87
78896;HTU21D;68284;59.124;37.910;2024-01-15T01:03:40;-11.77;72.89
78896;HTU21D;68284;59.124;37.910;2024-01-15T01:06:06;-11.76;72.88
78896;HTU21D;68284;59.124;37.910;2024-01-15T01:08:51;-11.76;72.93
78896;HTU21D;68284;59.124;37.910;2024-01-15T01:11:17;-11.71;72.91
78896;HTU21D;68284;59.124;37.910;2024-01-15T01:13:44;-11.70;72.92
78896;HTU21D;68284;59.124;37.910;2024-01-15T01:16:10;-11.69;72.90
78896;HTU21D;68284;59.124;37.910;2024-01-15T01:18:36;-11.68;72.92
78896;HTU21D;68284;59.124;37.910;2024-01-15T01:21:03;-11.66;72.87
78896;HTU21D;68284;59.124;37.910;2024-01-15T01:23:29;-11.63;72.90
78896;HTU21D;68284;59.124;37.910;2024-01-15T01:25:55;-11.61;72.96
78896;HTU21D;68284;59.124;37.910;2024-01-15T01:28:22;-11.58;72.94
78896;HTU21D;68284;59.124;37.910;2024-01-15T01:31:25;-11.52;72.83
78896;HTU21D;68284;59.124;37.910;2024-01-15T01:33:51;-11.51;72.68
78896;HTU21D;68284;59.124;37.910;2024-01-15T01:36:18;-11.52;72.77
78896;HTU21D;68284;59.124;37.910;2024-01-15T01:41:30;-11.52;72.80
78896;HTU21D;68284;59.124;37.910;2024-01-15T01:44:15;-11.51;72.83
78896;HTU21D;68284;59.124;37.910;2024-01-15T01:46:42;-11.47;72.78
78896;HTU21D;68284;59.124;37.910;2024-01-15T01:49:10;-11.48;72.71
78896;HTU21D;68284;59.124;37.910;2024-01-15T01:51:37;-11.48;72.64
78896;HTU21D;68284;59.124;37.910;2024-01-15T01:54:06;-11.50;72.67
78896;HTU21D;68284;59.124;37.910;2024-01-15T01:56:35;-11.49;72.70
78896;HTU21D;68284;59.124;37.910;2024-01-15T01:59:02;-11.49;72.70
78896;HTU21D;68284;59.124;37.910;2024-01-15T02:01:31;-11.50;72.72
78896;HTU21D;68284;59.124;37.910;2024-01-15T02:03:57;-11.49;72.77
78896;HTU21D;68284;59.124;37.910;2024-01-15T02:06:24;-11.48;72.72
78896;HTU21D;68284;59.124;37.910;2024-01-15T02:08:51;-11.46;72.72
78896;HTU21D;68284;59.124;37.910;2024-01-15T02:11:17;-11.46;72.71
78896;HTU21D;68284;59.124;37.910;2024-01-15T02:14:02;-11.42;72.77
78896;HTU21D;68284;59.124;37.910;2024-01-15T02:16:29;-11.42;72.75
78896;HTU21D;68284;59.124;37.910;2024-01-15T02:18:56;-11.40;72.74
78896;HTU21D;68284;59.124;37.910;2024-01-15T02:21:22;-11.38;72.73
78896;HTU21D;68284;59.124;37.910;2024-01-15T02:23:49;-11.36;72.74
78896;HTU21D;68284;59.124;37.910;2024-01-15T02:26:17;-11.35;72.70
78896;HTU21D;68284;59.124;37.910;2024-01-15T02:31:29;-11.29;72.67
78896;HTU21D;68284;59.124;37.910;2024-01-15T02:33:55;-11.27;72.63
78896;HTU21D;68284;59.124;37.910;2024-01-15T02:39:07;-11.24;72.65
78896;HTU21D;68284;59.124;37.910;2024-01-15T02:41:34;-11.27;72.60
78896;HTU21D;68284;59.124;37.910;2024-01-15T02:44:01;-11.29;72.70
78896;HTU21D;68284;59.124;37.910;2024-01-15T02:46:46;-11.26;72.70
78896;HTU21D;68284;59.124;37.910;2024-01-15T02:49:12;-11.25;72.73
78896;HTU21D;68284;59.124;37.910;2024-01-15T02:51:39;-11.24;72.80
78896;HTU21D;68284;59.124;37.910;2024-01-15T02:54:05;-11.20;72.83
78896;HTU21D;68284;59.124;37.910;2024-01-15T02:56:32;-11.17;72.79
78896;HTU21D;68284;59.124;37.910;2024-01-15T02:59:17;-11.12;72.75
78896;HTU21D;68284;59.124;37.910;2024-01-15T03:01:43;-11.09;72.73
78896;HTU21D;68284;59.124;37.910;2024-01-15T03:04:10;-11.06;72.74
78896;HTU21D;68284;59.124;37.910;2024-01-15T03:06:36;-11.02;72.74
78896;HTU21D;68284;59.124;37.910;2024-01-15T03:11:48;-10.99;72.64
78896;HTU21D;68284;59.124;37.910;2024-01-15T03:14:16;-11.00;72.62
78896;HTU21D;68284;59.124;37.910;2024-01-15T03:16:42;-11.01;72.70
78896;HTU21D;68284;59.124;37.910;2024-01-15T03:19:08;-11.01;72.77
78896;HTU21D;68284;59.124;37.910;2024-01-15T03:21:35;-11.01;72.82
78896;HTU21D;68284;59.124;37.910;2024-01-15T03:24:01;-10.97;72.83
78896;HTU21D;68284;59.124;37.910;2024-01-15T03:26:28;-10.99;72.88
78896;HTU21D;68284;59.124;37.910;2024-01-15T03:28:54;-10.95;72.83
78896;HTU21D;68284;59.124;37.910;2024-01-15T03:31:21;-10.93;72.83
78896;HTU21D;68284;59.124;37.910;2024-01-15T03:33:47;-10.94;72.80
78896;HTU21D;68284;59.124;37.910;2024-01-15T03:38:58;-10.92;72.87
78896;HTU21D;68284;59.124;37.910;2024-01-15T03:41:24;-10.91;72.85
78896;HTU21D;68284;59.124;37.910;2024-01-15T03:43:51;-10.89;72.82
78896;HTU21D;68284;59.124;37.910;2024-01-15T03:46:35;-10.88;72.76
78896;HTU21D;68284;59.124;37.910;2024-01-15T03:49:02;-10.88;72.80
78896;HTU21D;68284;59.124;37.910;2024-01-15T03:52:05;-10.89;72.81
78896;HTU21D;68284;59.124;37.910;2024-01-15T03:54:50;-10.86;72.85
78896;HTU21D;68284;59.124;37.910;2024-01-15T03:57:35;-10.85;72.77
78896;HTU21D;68284;59.124;37.910;2024-01-15T04:00:03;-10.86;72.81
78896;HTU21D;68284;59.124;37.910;2024-01-15T04:02:31;-10.84;72.86
78896;HTU21D;68284;59.124;37.910;2024-01-15T04:04:57;-10.81;72.91
78896;HTU21D;68284;59.124;37.910;2024-01-15T04:07:23;-10.78;72.88
78896;HTU21D;68284;59.124;37.910;2024-01-15T04:09:49;-10.75;72.93
78896;HTU21D;68284;59.124;37.910;2024-01-15T04:12:34;-10.71;72.87
78896;HTU21D;68284;59.124;37.910;2024-01-15T04:15:20;-10.66;72.83
78896;HTU21D;68284;59.124;37.910;2024-01-15T04:17:46;-10.62;72.83
78896;HTU21D;68284;59.124;37.910;2024-01-15T04:20:12;-10.58;72.80
78896;HTU21D;68284;59.124;37.910;2024-01-15T04:22:39;-10.56;72.74
78896;HTU21D;68284;59.124;37.910;2024-01-15T04:25:05;-10.55;72.76
78896;HTU21D;68284;59.124;37.910;2024-01-15T04:27:32;-10.52;72.82
78896;HTU21D;68284;59.124;37.910;2024-01-15T04:29:58;-10.50;72.90
78896;HTU21D;68284;59.124;37.910;2024-01-15T04:32:24;-10.48;72.93
78896;HTU21D;68284;59.124;37.910;2024-01-15T04:34:50;-10.45;72.93
78896;HTU21D;68284;59.124;37.910;2024-01-15T04:37:17;-10.43;72.96
78896;HTU21D;68284;59.124;37.910;2024-01-15T04:39:43;-10.41;72.99
78896;HTU21D;68284;59.124;37.910;2024-01-15T04:42:09;-10.38;73.01
78896;HTU21D;68284;59.124;37.910;2024-01-15T04:44:36;-10.36;73.01
78896;HTU21D;68284;59.124;37.910;2024-01-15T04:47:02;-10.33;73.05
78896;HTU21D;68284;59.124;37.910;2024-01-15T04:49:29;-10.31;73.12
78896;HTU21D;68284;59.124;37.910;2024-01-15T04:52:13;-10.28;73.08
78896;HTU21D;68284;59.124;37.910;2024-01-15T04:54:40;-10.28;73.08
78896;HTU21D;68284;59.124;37.910;2024-01-15T04:57:06;-10.26;73.15
78896;HTU21D;68284;59.124;37.910;2024-01-15T05:02:36;-10.15;73.05
78896;HTU21D;68284;59.124;37.910;2024-01-15T05:05:02;-10.13;73.07
78896;HTU21D;68284;59.124;37.910;2024-01-15T05:10:13;-10.08;73.01
78896;HTU21D;68284;59.124;37.910;2024-01-15T05:12:39;-10.05;73.09
78896;HTU21D;68284;59.124;37.910;2024-01-15T05:15:05;-10.01;73.05
78896;HTU21D;68284;59.124;37.910;2024-01-15T05:17:32;-9.99;73.03
78896;HTU21D;68284;59.124;37.910;2024-01-15T05:19:58;-9.99;73.09
78896;HTU21D;68284;59.124;37.910;2024-01-15T05:22:24;-9.96;73.13
78896;HTU21D;68284;59.124;37.910;2024-01-15T05:24:51;-9.94;73.19
78896;HTU21D;68284;59.124;37.910;2024-01-15T05:27:17;-9.88;73.25
78896;HTU21D;68284;59.124;37.910;2024-01-15T05:29:44;-9.85;73.25
78896;HTU21D;68284;59.124;37.910;2024-01-15T05:32:10;-9.81;73.23
78896;HTU21D;68284;59.124;37.910;2024-01-15T05:34:36;-9.75;73.26
78896;HTU21D;68284;59.124;37.910;2024-01-15T05:37:04;-9.70;73.20
78896;HTU21D;68284;59.124;37.910;2024-01-15T05:39:30;-9.67;73.21
78896;HTU21D;68284;59.124;37.910;2024-01-15T05:41:58;-9.62;73.19
78896;HTU21D;68284;59.124;37.910;2024-01-15T05:44:24;-9.60;73.19
78896;HTU21D;68284;59.124;37.910;2024-01-15T05:46:50;-9.56;73.11
78896;HTU21D;68284;59.124;37.910;2024-01-15T05:49:17;-9.54;73.09
78896;HTU21D;68284;59.124;37.910;2024-01-15T05:51:43;-9.47;73.16
78896;HTU21D;68284;59.124;37.910;2024-01-15T05:54:37;-9.38;73.51
78896;HTU21D;68284;59.124;37.910;2024-01-15T05:57:17;-9.38;73.46
78896;HTU21D;68284;59.124;37.910;2024-01-15T05:59:51;-9.39;73.56
78896;HTU21D;68284;59.124;37.910;2024-01-15T06:02:18;-9.39;73.63
78896;HTU21D;68284;59.124;37.910;2024-01-15T06:05:04;-9.37;73.64
78896;HTU21D;68284;59.124;37.910;2024-01-15T06:07:31;-9.30;73.65
78896;HTU21D;68284;59.124;37.910;2024-01-15T06:09:57;-9.24;73.65
78896;HTU21D;68284;59.124;37.910;2024-01-15T06:12:23;-9.14;73.61
78896;HTU21D;68284;59.124;37.910;2024-01-15T06:14:50;-9.08;73.51
78896;HTU21D;68284;59.124;37.910;2024-01-15T06:17:16;-9.02;73.44
78896;HTU21D;68284;59.124;37.910;2024-01-15T06:19:43;-8.97;73.43
78896;HTU21D;68284;59.124;37.910;2024-01-15T06:22:10;-8.92;73.37
78896;HTU21D;68284;59.124;37.910;2024-01-15T06:24:36;-8.86;73.43
78896;HTU21D;68284;59.124;37.910;2024-01-15T06:27:03;-8.81;73.37
78896;HTU21D;68284;59.124;37.910;2024-01-15T06:29:30;-8.78;73.36
78896;HTU21D;68284;59.124;37.910;2024-01-15T06:32:15;-8.74;73.29
78896;HTU21D;68284;59.124;37.910;2024-01-15T06:34:41;-8.71;73.31
78896;HTU21D;68284;59.124;37.910;2024-01-15T06:37:08;-8.68;73.35
78896;HTU21D;68284;59.124;37.910;2024-01-15T06:39:34;-8.63;73.32
78896;HTU21D;68284;59.124;37.910;2024-01-15T06:42:00;-8.59;73.33
78896;HTU21D;68284;59.124;37.910;2024-01-15T06:44:27;-8.54;73.30
78896;HTU21D;68284;59.124;37.910;2024-01-15T06:46:53;-8.50;73.26
78896;HTU21D;68284;59.124;37.910;2024-01-15T06:49:23;-8.49;73.31
78896;HTU21D;68284;59.124;37.910;2024-01-15T06:51:49;-8.45;73.32
78896;HTU21D;68284;59.124;37.910;2024-01-15T06:54:15;-8.43;73.32
78896;HTU21D;68284;59.124;37.910;2024-01-15T06:59:27;-8.37;73.27
78896;HTU21D;68284;59.124;37.910;2024-01-15T07:01:53;-8.36;73.19
78896;HTU21D;68284;59.124;37.910;2024-01-15T07:04:38;-8.34;73.21
78896;HTU21D;68284;59.124;37.910;2024-01-15T07:07:04;-8.33;73.21
78896;HTU21D;68284;59.124;37.910;2024-01-15T07:09:30;-8.28;74.04
78896;HTU21D;68284;59.124;37.910;2024-01-15T07:12:18;-8.05;74.79
78896;HTU21D;68284;59.124;37.910;2024-01-15T07:14:45;-7.96;74.42
78896;HTU21D;68284;59.124;37.910;2024-01-15T07:17:11;-7.94;74.18
78896;HTU21D;68284;59.124;37.910;2024-01-15T07:19:38;-7.91;74.02
78896;HTU21D;68284;59.124;37.910;2024-01-15T07:22:04;-7.90;73.75
78896;HTU21D;68284;59.124;37.910;2024-01-15T07:24:49;-7.92;73.64
78896;HTU21D;68284;59.124;37.910;2024-01-15T07:27:34;-7.90;73.56
78896;HTU21D;68284;59.124;37.910;2024-01-15T07:30:37;-7.91;73.42
78896;HTU21D;68284;59.124;37.910;2024-01-15T07:33:05;-7.93;73.34
78896;HTU21D;68284;59.124;37.910;2024-01-15T07:35:32;-7.95;73.32
78896;HTU21D;68284;59.124;37.910;2024-01-15T07:38:16;-7.96;73.45
78896;HTU21D;68284;59.124;37.910;2024-01-15T07:40:42;-7.95;73.41
78896;HTU21D;68284;59.124;37.910;2024-01-15T07:43:09;-7.93;73.53
78896;HTU21D;68284;59.124;37.910;2024-01-15T07:45:35;-7.90;73.54
78896;HTU21D;68284;59.124;37.910;2024-01-15T07:50:46;-7.81;73.44
78896;HTU21D;68284;59.124;37.910;2024-01-15T07:53:13;-7.80;73.38
78896;HTU21D;68284;59.124;37.910;2024-01-15T07:58:43;-7.69;73.26
78896;HTU21D;68284;59.124;37.910;2024-01-15T08:01:47;-7.66;73.23
78896;HTU21D;68284;59.124;37.910;2024-01-15T08:04:13;-7.61;73.20
78896;HTU21D;68284;59.124;37.910;2024-01-15T08:06:40;-7.54;73.21
78896;HTU21D;68284;59.124;37.910;2024-01-15T08:09:07;-7.49;73.19
78896;HTU21D;68284;59.124;37.910;2024-01-15T08:11:35;-7.40;73.11
78896;HTU21D;68284;59.124;37.910;2024-01-15T08:14:04;-7.37;72.94
78896;HTU21D;68284;59.124;37.910;2024-01-15T08:16:30;-7.37;72.81
78896;HTU21D;68284;59.124;37.910;2024-01-15T08:19:02;-7.36;72.89
78896;HTU21D;68284;59.124;37.910;2024-01-15T08:21:34;-7.35;72.88
78896;HTU21D;68284;59.124;37.910;2024-01-15T08:24:17;-7.34;73.02
78896;HTU21D;68284;59.124;37.910;2024-01-15T08:26:44;-7.26;72.95
78896;HTU21D;68284;59.124;37.910;2024-01-15T08:29:13;-7.23;72.80
78896;HTU21D;68284;59.124;37.910;2024-01-15T08:31:42;-7.24;72.73
78896;HTU21D;68284;59.124;37.910;2024-01-15T08:34:10;-7.23;72.90
78896;HTU21D;68284;59.124;37.910;2024-01-15T08:36:37;-7.21;72.89
78896;HTU21D;68284;59.124;37.910;2024-01-15T08:39:04;-7.19;73.01
78896;HTU21D;68284;59.124;37.910;2024-01-15T08:41:34;-7.16;73.00
78896;HTU21D;68284;59.124;37.910;2024-01-15T08:44:21;-7.13;72.92
78896;HTU21D;68284;59.124;37.910;2024-01-15T08:47:13;-7.12;72.90
78896;HTU21D;68284;59.124;37.910;2024-01-15T08:49:40;-7.12;72.98
78896;HTU21D;68284;59.124;37.910;2024-01-15T08:52:06;-7.09;72.98
78896;HTU21D;68284;59.124;37.910;2024-01-15T08:54:33;-7.09;72.99
78896;HTU21D;68284;59.124;37.910;2024-01-15T08:57:00;-7.08;73.09
78896;HTU21D;68284;59.124;37.910;2024-01-15T08:59:45;-7.06;73.19
78896;HTU21D;68284;59.124;37.910;2024-01-15T09:02:12;-7.04;73.09
78896;HTU21D;68284;59.124;37.910;2024-01-15T09:04:40;-7.05;73.14
78896;HTU21D;68284;59.124;37.910;2024-01-15T09:07:07;-7.04;73.17
78896;HTU21D;68284;59.124;37.910;2024-01-15T09:09:34;-7.03;73.19
78896;HTU21D;68284;59.124;37.910;2024-01-15T09:12:20;-7.03;73.22
78896;HTU21D;68284;59.124;37.910;2024-01-15T09:18:33;-6.95;73.35
78896;HTU21D;68284;59.124;37.910;2024-01-15T09:23:52;-6.88;73.35
78896;HTU21D;68284;59.124;37.910;2024-01-15T09:26:21;-6.86;73.30
78896;HTU21D;68284;59.124;37.910;2024-01-15T09:28:49;-6.85;73.51
78896;HTU21D;68284;59.124;37.910;2024-01-15T09:31:16;-6.83;73.60
78896;HTU21D;68284;59.124;37.910;2024-01-15T09:33:44;-6.79;73.67
78896;HTU21D;68284;59.124;37.910;2024-01-15T09:36:29;-6.74;73.77
78896;HTU21D;68284;59.124;37.910;2024-01-15T09:38:56;-6.70;73.67
78896;HTU21D;68284;59.124;37.910;2024-01-15T09:41:23;-6.70;73.69
78896;HTU21D;68284;59.124;37.910;2024-01-15T09:44:08;-6.64;73.83
78896;HTU21D;68284;59.124;37.910;2024-01-15T09:46:41;-6.58;73.86
78896;HTU21D;68284;59.124;37.910;2024-01-15T09:49:37;-6.50;73.86
78896;HTU21D;68284;59.124;37.910;2024-01-15T09:52:11;-6.42;73.81
78896;HTU21D;68284;59.124;37.910;2024-01-15T09:54:40;-6.35;73.79
78896;HTU21D;68284;59.124;37.910;2024-01-15T09:57:12;-6.29;73.69
78896;HTU21D;68284;59.124;37.910;2024-01-15T10:03:08;-6.15;73.80
78896;HTU21D;68284;59.124;37.910;2024-01-15T10:05:48;-6.06;73.83
78896;HTU21D;68284;59.124;37.910;2024-01-15T10:08:49;-5.96;73.83
78896;HTU21D;68284;59.124;37.910;2024-01-15T10:11:25;-5.87;73.77
78896;HTU21D;68284;59.124;37.910;2024-01-15T10:14:01;-5.83;73.67
78896;HTU21D;68284;59.124;37.910;2024-01-15T10:17:10;-5.77;73.73
78896;HTU21D;68284;59.124;37.910;2024-01-15T10:19:54;-5.69;73.67
78896;HTU21D;68284;59.124;37.910;2024-01-15T10:22:46;-5.69;73.63
78896;HTU21D;68284;59.124;37.910;2024-01-15T10:28:04;-5.67;73.67
78896;HTU21D;68284;59.124;37.910;2024-01-15T10:30:33;-5.67;73.68
78896;HTU21D;68284;59.124;37.910;2024-01-15T10:33:03;-5.65;73.88
78896;HTU21D;68284;59.124;37.910;2024-01-15T10:35:55;-5.63;73.98
78896;HTU21D;68284;59.124;37.910;2024-01-15T10:38:27;-5.62;73.98
78896;HTU21D;68284;59.124;37.910;2024-01-15T10:41:05;-5.59;74.07
78896;HTU21D;68284;59.124;37.910;2024-01-15T10:43:38;-5.55;74.15
78896;HTU21D;68284;59.124;37.910;2024-01-15T10:46:15;-5.49;74.12
78896;HTU21D;68284;59.124;37.910;2024-01-15T10:49:10;-5.43;73.92
78896;HTU21D;68284;59.124;37.910;2024-01-15T10:52:05;-5.35;73.84
78896;HTU21D;68284;59.124;37.910;2024-01-15T10:54:37;-5.27;73.77
78896;HTU21D;68284;59.124;37.910;2024-01-15T10:57:15;-5.17;73.64
78896;HTU21D;68284;59.124;37.910;2024-01-15T10:59:45;-5.12;73.52
78896;HTU21D;68284;59.124;37.910;2024-01-15T11:02:17;-5.08;73.45
78896;HTU21D;68284;59.124;37.910;2024-01-15T11:04:47;-5.07;73.42
78896;HTU21D;68284;59.124;37.910;2024-01-15T11:07:16;-5.07;73.48
78896;HTU21D;68284;59.124;37.910;2024-01-15T11:09:51;-5.07;73.51
78896;HTU21D;68284;59.124;37.910;2024-01-15T11:13:01;-5.04;73.51
78896;HTU21D;68284;59.124;37.910;2024-01-15T11:16:04;-5.02;73.51
78896;HTU21D;68284;59.124;37.910;2024-01-15T11:21:57;-4.96;73.44
78896;HTU21D;68284;59.124;37.910;2024-01-15T11:25:18;-4.93;73.38
78896;HTU21D;68284;59.124;37.910;2024-01-15T11:32:39;-4.75;73.11
78896;HTU21D;68284;59.124;37.910;2024-01-15T11:35:47;-4.73;73.09
78896;HTU21D;68284;59.124;37.910;2024-01-15T11:38:47;-4.72;72.99
78896;HTU21D;68284;59.124;37.910;2024-01-15T11:41:14;-4.71;73.13
78896;HTU21D;68284;59.124;37.910;2024-01-15T11:43:43;-4.71;73.22
78896;HTU21D;68284;59.124;37.910;2024-01-15T11:46:12;-4.72;73.32
78896;HTU21D;68284;59.124;37.910;2024-01-15T11:48:49;-4.69;73.39
78896;HTU21D;68284;59.124;37.910;2024-01-15T11:51:21;-4.67;73.38
78896;HTU21D;68284;59.124;37.910;2024-01-15T11:53:56;-4.60;73.37
78896;HTU21D;68284;59.124;37.910;2024-01-15T11:56:56;-4.52;73.19
78896;HTU21D;68284;59.124;37.910;2024-01-15T12:01:34;-4.48;72.99
78896;HTU21D;68284;59.124;37.910;2024-01-15T12:05:38;-4.40;72.85
78896;HTU21D;68284;59.124;37.910;2024-01-15T12:08:50;-4.38;72.74
78896;HTU21D;68284;59.124;37.910;2024-01-15T12:11:37;-4.40;72.77
78896;HTU21D;68284;59.124;37.910;2024-01-15T12:14:23;-4.41;72.92
78896;HTU21D;68284;59.124;37.910;2024-01-15T12:16:54;-4.38;73.04
78896;HTU21D;68284;59.124;37.910;2024-01-15T12:20:00;-4.36;72.96
78896;HTU21D;68284;59.124;37.910;2024-01-15T12:22:28;-4.37;73.01
78896;HTU21D;68284;59.124;37.910;2024-01-15T12:25:35;-4.31;73.01
78896;HTU21D;68284;59.124;37.910;2024-01-15T12:28:03;-4.30;72.97
78896;HTU21D;68284;59.124;37.910;2024-01-15T12:30:33;-4.30;72.98
78896;HTU21D;68284;59.124;37.910;2024-01-15T12:33:03;-4.34;73.10
78896;HTU21D;68284;59.124;37.910;2024-01-15T12:35:36;-4.30;73.16
78896;HTU21D;68284;59.124;37.910;2024-01-15T12:38:11;-4.30;73.10
78896;HTU21D;68284;59.124;37.910;2024-01-15T12:40:40;-4.28;73.06
78896;HTU21D;68284;59.124;37.910;2024-01-15T12:43:17;-4.30;72.95
78896;HTU21D;68284;59.124;37.910;2024-01-15T12:45:44;-4.30;72.94
78896;HTU21D;68284;59.124;37.910;2024-01-15T12:48:13;-4.32;73.00
78896;HTU21D;68284;59.124;37.910;2024-01-15T12:50:43;-4.30;73.12
78896;HTU21D;68284;59.124;37.910;2024-01-15T12:53:16;-4.30;73.17
78896;HTU21D;68284;59.124;37.910;2024-01-15T12:55:44;-4.30;73.25
78896;HTU21D;68284;59.124;37.910;2024-01-15T12:58:11;-4.28;73.28
78896;HTU21D;68284;59.124;37.910;2024-01-15T13:00:40;-4.29;73.40
78896;HTU21D;68284;59.124;37.910;2024-01-15T13:03:11;-4.27;73.48
78896;HTU21D;68284;59.124;37.910;2024-01-15T13:05:49;-4.26;73.52
78896;HTU21D;68284;59.124;37.910;2024-01-15T13:08:21;-4.26;73.57
78896;HTU21D;68284;59.124;37.910;2024-01-15T13:10:54;-4.24;73.69
78896;HTU21D;68284;59.124;37.910;2024-01-15T13:13:28;-4.24;73.68
78896;HTU21D;68284;59.124;37.910;2024-01-15T13:16:01;-4.25;73.81
78896;HTU21D;68284;59.124;37.910;2024-01-15T13:18:42;-4.23;73.81
78896;HTU21D;68284;59.124;37.910;2024-01-15T13:21:44;-4.21;73.90
78896;HTU21D;68284;59.124;37.910;2024-01-15T13:24:22;-4.19;73.92
78896;HTU21D;68284;59.124;37.910;2024-01-15T13:27:11;-4.19;73.87
78896;HTU21D;68284;59.124;37.910;2024-01-15T13:29:51;-4.20;73.97
78896;HTU21D;68284;59.124;37.910;2024-01-15T13:36:33;-4.19;73.96
78896;HTU21D;68284;59.124;37.910;2024-01-15T13:38:59;-4.17;74.06
78896;HTU21D;68284;59.124;37.910;2024-01-15T13:41:34;-4.16;74.10
78896;HTU21D;68284;59.124;37.910;2024-01-15T13:44:28;-4.13;74.09
78896;HTU21D;68284;59.124;37.910;2024-01-15T13:47:02;-4.11;74.09
78896;HTU21D;68284;59.124;37.910;2024-01-15T13:49:31;-4.10;74.07
78896;HTU21D;68284;59.124;37.910;2024-01-15T13:52:29;-4.11;74.13
78896;HTU21D;68284;59.124;37.910;2024-01-15T13:54:57;-4.13;74.26
78896;HTU21D;68284;59.124;37.910;2024-01-15T13:57:24;-4.10;74.35
78896;HTU21D;68284;59.124;37.910;2024-01-15T13:59:50;-4.10;74.46
78896;HTU21D;68284;59.124;37.910;2024-01-15T14:02:37;-4.07;74.55
78896;HTU21D;68284;59.124;37.910;2024-01-15T14:05:04;-4.05;74.47
78896;HTU21D;68284;59.124;37.910;2024-01-15T14:07:32;-4.06;74.50
78896;HTU21D;68284;59.124;37.910;2024-01-15T14:09:59;-4.06;74.50
78896;HTU21D;68284;59.124;37.910;2024-01-15T14:12:26;-4.05;74.57
78896;HTU21D;68284;59.124;37.910;2024-01-15T14:14:57;-4.06;74.66
78896;HTU21D;68284;59.124;37.910;2024-01-15T14:17:42;-4.05;74.67
78896;HTU21D;68284;59.124;37.910;2024-01-15T14:22:55;-4.06;74.78
78896;HTU21D;68284;59.124;37.910;2024-01-15T14:25:22;-4.06;74.81
78896;HTU21D;68284;59.124;37.910;2024-01-15T14:27:53;-4.08;74.89
78896;HTU21D;68284;59.124;37.910;2024-01-15T14:30:20;-4.09;74.99
78896;HTU21D;68284;59.124;37.910;2024-01-15T14:33:15;-4.12;75.01
78896;HTU21D;68284;59.124;37.910;2024-01-15T14:35:49;-4.09;75.11
78896;HTU21D;68284;59.124;37.910;2024-01-15T14:38:17;-4.08;75.09
78896;HTU21D;68284;59.124;37.910;2024-01-15T14:40:44;-4.08;75.09
78896;HTU21D;68284;59.124;37.910;2024-01-15T14:43:11;-4.08;75.12
78896;HTU21D;68284;59.124;37.910;2024-01-15T14:45:37;-4.07;75.32
78896;HTU21D;68284;59.124;37.910;2024-01-15T14:48:05;-4.08;75.35
78896;HTU21D;68284;59.124;37.910;2024-01-15T14:50:32;-4.08;75.40
78896;HTU21D;68284;59.124;37.910;2024-01-15T14:53:00;-4.08;75.44
78896;HTU21D;68284;59.124;37.910;2024-01-15T14:55:26;-4.07;75.51
78896;HTU21D;68284;59.124;37.910;2024-01-15T14:57:57;-4.05;75.54
78896;HTU21D;68284;59.124;37.910;2024-01-15T15:00:48;-4.02;75.54
78896;HTU21D;68284;59.124;37.910;2024-01-15T15:03:19;-4.01;75.62
78896;HTU21D;68284;59.124;37.910;2024-01-15T15:05:48;-4.01;75.62
78896;HTU21D;68284;59.124;37.910;2024-01-15T15:08:16;-4.01;75.76
78896;HTU21D;68284;59.124;37.910;2024-01-15T15:10:46;-3.99;75.78
78896;HTU21D;68284;59.124;37.910;2024-01-15T15:13:47;-3.97;75.81
78896;HTU21D;68284;59.124;37.910;2024-01-15T15:16:25;-3.93;75.77
78896;HTU21D;68284;59.124;37.910;2024-01-15T15:18:51;-3.89;75.84
78896;HTU21D;68284;59.124;37.910;2024-01-15T15:21:20;-3.86;75.89
78896;HTU21D;68284;59.124;37.910;2024-01-15T15:23:49;-3.87;75.98
78896;HTU21D;68284;59.124;37.910;2024-01-15T15:26:19;-3.90;75.94
78896;HTU21D;68284;59.124;37.910;2024-01-15T15:28:54;-3.90;76.02
78896;HTU21D;68284;59.124;37.910;2024-01-15T15:31:20;-3.90;76.13
78896;HTU21D;68284;59.124;37.910;2024-01-15T15:33:47;-3.89;76.20
78896;HTU21D;68284;59.124;37.910;2024-01-15T15:36:17;-3.87;76.24
78896;HTU21D;68284;59.124;37.910;2024-01-15T15:38:45;-3.85;76.41
78896;HTU21D;68284;59.124;37.910;2024-01-15T15:41:17;-3.86;76.32
78896;HTU21D;68284;59.124;37.910;2024-01-15T15:44:07;-3.87;76.33
78896;HTU21D;68284;59.124;37.910;2024-01-15T15:47:09;-3.90;76.40
78896;HTU21D;68284;59.124;37.910;2024-01-15T15:49:51;-3.93;76.52
78896;HTU21D;68284;59.124;37.910;2024-01-15T15:52:20;-3.94;76.56
78896;HTU21D;68284;59.124;37.910;2024-01-15T15:54:46;-3.90;76.73
78896;HTU21D;68284;59.124;37.910;2024-01-15T15:57:18;-3.87;76.69
78896;HTU21D;68284;59.124;37.910;2024-01-15T15:59:45;-3.83;76.75
78896;HTU21D;68284;59.124;37.910;2024-01-15T16:02:12;-3.83;76.74
78896;HTU21D;68284;59.124;37.910;2024-01-15T16:04:38;-3.82;76.79
78896;HTU21D;68284;59.124;37.910;2024-01-15T16:07:05;-3.83;76.86
78896;HTU21D;68284;59.124;37.910;2024-01-15T16:09:36;-3.82;76.94
78896;HTU21D;68284;59.124;37.910;2024-01-15T16:12:10;-3.77;76.92
78896;HTU21D;68284;59.124;37.910;2024-01-15T16:14:38;-3.74;76.95
78896;HTU21D;68284;59.124;37.910;2024-01-15T16:17:04;-3.72;76.98
78896;HTU21D;68284;59.124;37.910;2024-01-15T16:19:31;-3.71;76.94
78896;HTU21D;68284;59.124;37.910;2024-01-15T16:21:59;-3.67;76.98
78896;HTU21D;68284;59.124;37.910;2024-01-15T16:24:25;-3.65;76.98
78896;HTU21D;68284;59.124;37.910;2024-01-15T16:26:52;-3.61;77.01
78896;HTU21D;68284;59.124;37.910;2024-01-15T16:29:22;-3.58;76.82
78896;HTU21D;68284;59.124;37.910;2024-01-15T16:31:48;-3.58;76.94
78896;HTU21D;68284;59.124;37.910;2024-01-15T16:34:15;-3.55;76.91